Time;durP1;ratioP1;P1;durP2;ratioP2;P2;SDS_P1;SDS_P2;PMS_P1;PMS_P2;Temp;Humidity;BMP_temperature;BMP_pressure;BME280_temperature;BME280_humidity;BME280_pressure;Samples;Min_cycle;Max_cycle;Signal;HPM_P1;HPM_P2
2021/07/27 00:01:15;;;;;;;7.82;5.90;;;23.70;62.80;;;;;;4943163;28;20137;-85
2021/07/27 00:03:41;;;;;;;8.23;6.13;;;23.70;62.70;;;;;;4975776;28;20039;-85
2021/07/27 00:06:10;;;;;;;8.50;6.28;;;23.60;62.70;;;;;;4976276;28;20034;-85
2021/07/27 00:08:37;;;;;;;7.88;5.68;;;23.60;62.80;;;;;;4959301;28;20053;-85
2021/07/27 00:11:08;;;;;;;9.50;5.93;;;23.70;62.90;;;;;;4958925;28;20026;-85
2021/07/27 00:13:34;;;;;;;8.23;5.97;;;23.60;62.90;;;;;;4976263;28;20148;-86
2021/07/27 00:16:00;;;;;;;8.55;6.38;;;23.60;62.90;;;;;;4959380;28;20026;-84
2021/07/27 00:18:26;;;;;;;9.50;6.72;;;23.60;62.90;;;;;;4958517;28;20470;-85
2021/07/27 00:20:52;;;;;;;9.68;6.78;;;23.60;62.90;;;;;;4959050;28;20054;-85
2021/07/27 00:23:18;;;;;;;8.55;6.00;;;23.60;62.90;;;;;;4974873;28;20035;-85
2021/07/27 00:25:44;;;;;;;9.77;7.32;;;23.50;62.90;;;;;;4959436;28;20081;-85
2021/07/27 00:28:13;;;;;;;8.57;6.30;;;23.50;62.90;;;;;;4974709;28;20027;-85
2021/07/27 00:30:39;;;;;;;7.85;5.72;;;23.50;62.90;;;;;;4974867;28;20030;-86
2021/07/27 00:33:05;;;;;;;8.77;5.90;;;23.50;62.90;;;;;;4958778;28;20035;-85
2021/07/27 00:35:32;;;;;;;7.93;6.05;;;23.50;63.00;;;;;;4958255;28;20133;-85
2021/07/27 00:38:08;;;;;;;9.45;7.07;;;23.50;63.00;;;;;;4974929;28;20127;-85
2021/07/27 00:40:39;;;;;;;9.60;6.75;;;23.50;63.10;;;;;;4959023;28;20125;-84
2021/07/27 00:43:07;;;;;;;9.60;6.55;;;23.50;63.10;;;;;;4974918;28;20033;-85
2021/07/27 00:45:33;;;;;;;8.93;6.65;;;23.40;63.00;;;;;;4958397;28;20035;-85
2021/07/27 00:48:00;;;;;;;8.80;6.32;;;23.40;63.00;;;;;;4958043;28;20093;-85
2021/07/27 00:50:27;;;;;;;9.20;6.63;;;23.40;63.10;;;;;;4975425;28;20098;-87
2021/07/27 00:52:56;;;;;;;9.23;6.85;;;23.40;63.10;;;;;;4958609;28;20595;-86
2021/07/27 00:55:23;;;;;;;9.13;6.53;;;23.40;63.10;;;;;;4958829;28;20034;-85
2021/07/27 00:57:49;;;;;;;8.50;6.68;;;23.40;63.10;;;;;;4958102;28;20057;-86
2021/07/27 01:00:17;;;;;;;10.38;7.68;;;23.30;63.10;;;;;;4958629;28;20105;-86
2021/07/27 01:02:43;;;;;;;9.20;7.32;;;23.40;63.20;;;;;;4965934;28;20079;-86
2021/07/27 01:05:13;;;;;;;9.07;6.97;;;23.40;63.20;;;;;;4968486;28;20039;-85
2021/07/27 01:07:42;;;;;;;9.38;6.90;;;23.30;63.20;;;;;;4981974;28;20029;-86
2021/07/27 01:10:11;;;;;;;9.10;6.93;;;23.30;63.20;;;;;;4979650;28;20031;-85
2021/07/27 01:12:38;;;;;;;8.68;6.63;;;23.30;63.20;;;;;;4975813;28;20023;-85
2021/07/27 01:15:05;;;;;;;9.35;7.32;;;23.30;63.10;;;;;;4984053;28;20089;-85
2021/07/27 01:17:32;;;;;;;10.35;7.25;;;23.20;63.10;;;;;;4966205;28;20532;-88
2021/07/27 01:39:19;;;;;;;;;;;23.20;63.30;;;;;;4975652;28;20062;-84
2021/07/27 01:44:30;;;;;;;9.88;7.35;;;23.10;63.20;;;;;;4974377;28;20046;-86
2021/07/27 01:46:57;;;;;;;10.18;7.35;;;23.10;63.30;;;;;;4974163;28;20042;-86
2021/07/27 01:49:23;;;;;;;11.55;8.20;;;23.10;63.40;;;;;;4942127;28;20023;-85
2021/07/27 01:51:48;;;;;;;10.18;7.78;;;23.00;63.40;;;;;;4958036;28;20161;-85
2021/07/27 01:54:23;;;;;;;11.02;8.45;;;23.10;63.50;;;;;;4957964;28;20038;-86
2021/07/27 01:56:49;;;;;;;11.23;8.27;;;23.00;63.40;;;;;;4974343;28;20050;-85
2021/07/27 01:59:15;;;;;;;10.88;7.65;;;23.10;63.40;;;;;;4977457;28;20026;-86
2021/07/27 02:01:41;;;;;;;11.38;8.30;;;23.00;63.40;;;;;;4977249;28;20046;-85
2021/07/27 02:04:07;;;;;;;8.98;7.07;;;23.00;64.10;;;;;;4946212;28;20081;-85
2021/07/27 02:06:32;;;;;;;11.25;8.48;;;23.00;63.50;;;;;;4962060;28;20041;-83
2021/07/27 02:09:04;;;;;;;11.05;8.27;;;23.00;63.50;;;;;;4961222;28;20027;-85
2021/07/27 02:11:38;;;;;;;11.40;8.50;;;22.90;63.50;;;;;;4961660;28;20031;-86
2021/07/27 02:14:04;;;;;;;11.35;8.20;;;23.00;63.50;;;;;;4977539;28;20031;-85
2021/07/27 02:16:29;;;;;;;11.23;8.88;;;23.00;63.50;;;;;;4961271;28;20037;-85
2021/07/27 02:19:02;;;;;;;11.50;8.98;;;22.90;63.50;;;;;;4961929;28;20042;-86
2021/07/27 02:21:28;;;;;;;11.82;8.27;;;22.90;63.60;;;;;;4945412;28;20031;-85
2021/07/27 02:23:54;;;;;;;11.65;9.18;;;23.00;63.60;;;;;;4929522;28;20389;-86
2021/07/27 02:26:19;;;;;;;12.73;9.57;;;23.00;63.60;;;;;;4977423;28;20077;-86
2021/07/27 02:28:45;;;;;;;12.25;9.13;;;22.90;63.60;;;;;;4961653;28;20147;-85
2021/07/27 02:31:17;;;;;;;12.48;8.95;;;22.90;63.60;;;;;;4961334;28;20070;-86
2021/07/27 02:33:43;;;;;;;11.50;9.20;;;22.90;63.60;;;;;;4961609;28;20085;-85
2021/07/27 02:36:08;;;;;;;10.40;8.32;;;22.90;63.60;;;;;;4960499;28;20526;-85
2021/07/27 02:38:34;;;;;;;11.98;9.13;;;22.80;63.60;;;;;;4945465;28;20031;-85
2021/07/27 02:41:03;;;;;;;11.90;9.43;;;22.80;63.60;;;;;;4945177;28;20038;-85
2021/07/27 02:43:30;;;;;;;11.85;9.93;;;22.80;63.70;;;;;;4960541;28;20105;-85
2021/07/27 02:45:56;;;;;;;14.38;10.73;;;22.80;63.70;;;;;;4960890;28;20039;-85
2021/07/27 02:48:21;;;;;;;13.57;10.32;;;22.80;63.70;;;;;;4960635;28;20034;-84
2021/07/27 02:50:48;;;;;;;12.57;10.00;;;22.80;63.70;;;;;;4976805;28;20463;-85
2021/07/27 02:53:15;;;;;;;13.45;10.90;;;22.80;63.80;;;;;;4976710;28;20023;-85
2021/07/27 02:55:42;;;;;;;12.10;10.27;;;22.80;63.80;;;;;;4976594;28;20031;-85
2021/07/27 02:58:27;;;;;;;13.18;10.55;;;22.80;63.80;;;;;;4976707;28;20035;-85
2021/07/27 03:00:53;;;;;;;13.23;10.73;;;22.80;64.00;;;;;;4976699;28;20046;-85
2021/07/27 03:03:19;;;;;;;12.93;9.95;;;22.80;63.80;;;;;;4960566;28;20030;-85
2021/07/27 03:05:44;;;;;;;15.55;11.90;;;22.70;63.80;;;;;;4961048;28;20124;-85
2021/07/27 03:08:18;;;;;;;14.00;11.00;;;22.70;63.80;;;;;;4960531;28;20046;-85
2021/07/27 03:10:44;;;;;;;12.60;10.02;;;22.70;63.80;;;;;;4979684;28;20105;-85
2021/07/27 03:13:10;;;;;;;13.52;11.05;;;22.70;63.80;;;;;;4964958;28;20531;-85
2021/07/27 03:15:36;;;;;;;14.75;10.93;;;22.70;63.80;;;;;;4980625;28;20062;-84
2021/07/27 03:18:02;;;;;;;15.15;11.25;;;22.70;63.90;;;;;;4944040;28;20383;-85
2021/07/27 03:20:28;;;;;;;13.98;11.07;;;22.70;63.90;;;;;;4959620;28;20082;-83
2021/07/27 03:22:55;;;;;;;13.25;10.70;;;22.60;63.90;;;;;;4960146;28;20114;-85
2021/07/27 03:25:22;;;;;;;14.35;10.98;;;22.60;63.90;;;;;;4976974;28;20487;-84
2021/07/27 03:27:50;;;;;;;13.73;10.32;;;22.60;63.90;;;;;;4977126;28;20041;-84
2021/07/27 03:30:17;;;;;;;12.40;9.93;;;22.60;64.00;;;;;;4943482;28;20034;-85
2021/07/27 03:32:45;;;;;;;13.27;10.48;;;22.60;64.00;;;;;;4975855;28;20058;-84
2021/07/27 03:35:15;;;;;;;13.68;11.00;;;22.50;64.00;;;;;;4975421;28;20159;-83
2021/07/27 03:37:41;;;;;;;13.27;10.43;;;22.50;64.00;;;;;;4944084;28;20027;-85
2021/07/27 03:40:08;;;;;;;12.75;10.77;;;22.50;64.00;;;;;;4975993;28;20053;-85
2021/07/27 03:42:34;;;;;;;13.77;11.05;;;22.50;64.10;;;;;;4975655;28;20035;-84
2021/07/27 03:45:00;;;;;;;13.95;10.68;;;22.50;64.10;;;;;;4959840;28;20026;-84
2021/07/27 03:47:27;;;;;;;12.15;10.20;;;22.50;64.10;;;;;;4976729;28;20031;-85
2021/07/27 03:49:54;;;;;;;12.95;11.20;;;22.50;64.20;;;;;;4959495;28;20148;-84
2021/07/27 03:52:20;;;;;;;14.75;11.25;;;22.40;64.20;;;;;;4975510;28;20116;-85
2021/07/27 03:54:45;;;;;;;16.25;11.75;;;22.50;64.20;;;;;;4975354;28;20030;-84
2021/07/27 03:57:11;;;;;;;13.93;10.68;;;22.40;64.20;;;;;;4958714;28;20125;-83
2021/07/27 03:59:37;;;;;;;14.57;11.25;;;22.50;64.20;;;;;;4975995;28;20118;-85
2021/07/27 04:02:04;;;;;;;14.27;11.27;;;22.40;64.20;;;;;;4975293;28;20591;-85
2021/07/27 04:04:33;;;;;;;13.57;10.95;;;22.40;64.30;;;;;;4959133;28;20131;-84
2021/07/27 04:06:59;;;;;;;13.93;10.95;;;22.40;64.30;;;;;;4974948;28;20050;-84
2021/07/27 04:09:25;;;;;;;13.43;10.95;;;22.40;64.30;;;;;;4975184;28;20058;-85
2021/07/27 04:11:51;;;;;;;14.48;11.38;;;22.40;64.30;;;;;;4975423;28;20062;-85
2021/07/27 04:14:17;;;;;;;13.93;11.13;;;22.40;64.30;;;;;;4959182;28;20463;-84
2021/07/27 04:16:43;;;;;;;14.57;11.50;;;22.40;64.30;;;;;;4975280;28;20042;-85
2021/07/27 04:19:09;;;;;;;12.82;10.25;;;22.40;64.30;;;;;;4942758;28;20497;-84
2021/07/27 04:21:35;;;;;;;12.13;10.20;;;22.40;64.30;;;;;;4975198;28;20022;-84
2021/07/27 04:24:02;;;;;;;11.68;9.98;;;22.30;64.30;;;;;;4974898;28;20027;-84
2021/07/27 04:26:28;;;;;;;13.63;10.85;;;22.30;64.40;;;;;;4958545;28;20042;-84
2021/07/27 04:28:55;;;;;;;12.23;10.07;;;22.30;64.40;;;;;;4958564;28;20486;-85
2021/07/27 04:31:21;;;;;;;12.75;9.52;;;22.30;64.40;;;;;;4958435;28;20458;-84
2021/07/27 04:33:47;;;;;;;11.75;9.20;;;22.30;64.40;;;;;;4958829;28;20050;-85
2021/07/27 04:36:13;;;;;;;11.35;9.48;;;22.30;64.40;;;;;;4959287;28;20055;-84
2021/07/27 04:38:39;;;;;;;12.90;9.98;;;22.30;64.40;;;;;;4959092;28;20034;-85
2021/07/27 04:41:05;;;;;;;11.68;9.63;;;22.30;64.50;;;;;;4958725;28;20042;-84
2021/07/27 04:43:32;;;;;;;11.43;9.73;;;22.20;64.40;;;;;;4974519;28;20490;-84
2021/07/27 04:45:59;;;;;;;11.85;9.43;;;22.20;64.50;;;;;;4974878;28;20114;-83
2021/07/27 04:48:24;;;;;;;12.15;9.23;;;22.20;64.50;;;;;;4958245;28;20428;-84
2021/07/27 04:50:50;;;;;;;11.73;9.38;;;22.20;64.50;;;;;;4958201;28;20034;-84
2021/07/27 04:53:21;;;;;;;10.65;8.43;;;22.20;64.60;;;;;;4974369;28;20085;-84
2021/07/27 04:55:48;;;;;;;9.95;8.27;;;22.20;64.50;;;;;;4942779;28;20105;-84
2021/07/27 04:58:14;;;;;;;11.45;9.27;;;22.20;64.60;;;;;;4974157;28;20034;-84
2021/07/27 05:00:39;;;;;;;11.07;9.00;;;22.20;64.60;;;;;;4958881;28;20037;-84
2021/07/27 05:03:05;;;;;;;11.27;8.85;;;22.20;64.70;;;;;;4974830;28;20031;-83
2021/07/27 05:05:31;;;;;;;10.77;9.00;;;22.20;64.60;;;;;;4975491;28;20034;-82
2021/07/27 05:07:58;;;;;;;11.23;8.93;;;22.10;64.60;;;;;;4957909;28;20472;-83
2021/07/27 05:10:24;;;;;;;9.65;7.82;;;22.20;64.70;;;;;;4957946;28;20058;-82
2021/07/27 05:12:50;;;;;;;10.23;8.07;;;22.20;64.70;;;;;;4957850;28;20027;-86
2021/07/27 05:15:16;;;;;;;11.73;8.60;;;22.20;64.70;;;;;;4958286;28;20442;-85
2021/07/27 05:17:52;;;;;;;10.35;7.97;;;22.10;64.70;;;;;;4959412;28;20026;-80
2021/07/27 05:20:18;;;;;;;9.80;7.32;;;22.10;64.70;;;;;;4974073;28;20041;-80
2021/07/27 05:22:44;;;;;;;10.43;8.32;;;22.10;64.70;;;;;;4956997;28;20027;-78
2021/07/27 05:25:11;;;;;;;10.43;8.32;;;22.10;64.70;;;;;;4957108;28;20049;-78
2021/07/27 05:27:37;;;;;;;8.80;7.40;;;22.10;64.80;;;;;;4957239;28;20027;-81
2021/07/27 05:30:05;;;;;;;9.27;7.35;;;22.10;64.80;;;;;;4957414;28;20035;-79
2021/07/27 05:32:31;;;;;;;10.63;8.48;;;22.10;64.90;;;;;;4957387;28;20026;-78
2021/07/27 05:34:57;;;;;;;9.05;7.82;;;22.10;64.80;;;;;;4960461;28;20031;-78
2021/07/27 05:37:22;;;;;;;9.25;7.78;;;22.10;64.90;;;;;;4977386;28;20034;-77
2021/07/27 05:39:48;;;;;;;9.57;7.38;;;22.10;64.90;;;;;;4961707;28;20034;-77
2021/07/27 05:42:14;;;;;;;9.55;7.60;;;22.10;64.90;;;;;;4977133;28;20035;-81
2021/07/27 05:44:41;;;;;;;9.20;7.75;;;22.10;64.90;;;;;;4977187;28;20035;-82
2021/07/27 05:47:07;;;;;;;10.23;7.78;;;22.10;64.90;;;;;;4978648;28;20039;-81
2021/07/27 05:49:35;;;;;;;8.93;7.25;;;22.10;64.90;;;;;;4960921;28;20559;-81
2021/07/27 05:52:00;;;;;;;8.25;6.32;;;22.10;64.90;;;;;;4960887;28;20027;-82
2021/07/27 05:54:28;;;;;;;9.52;7.60;;;22.10;64.90;;;;;;4976894;28;20036;-82
2021/07/27 05:56:54;;;;;;;8.98;7.13;;;22.10;65.00;;;;;;4976822;28;20121;-81
2021/07/27 05:59:21;;;;;;;8.48;6.93;;;22.10;65.00;;;;;;4977099;28;20035;-81
2021/07/27 06:01:48;;;;;;;9.27;7.28;;;22.10;65.00;;;;;;4976723;28;20039;-81
2021/07/27 06:04:14;;;;;;;8.38;6.53;;;22.10;65.00;;;;;;4961201;28;20042;-81
2021/07/27 06:06:41;;;;;;;8.23;6.75;;;22.10;65.00;;;;;;4960544;28;20058;-81
2021/07/27 06:09:08;;;;;;;8.93;7.00;;;22.10;65.00;;;;;;4960483;28;20027;-80
2021/07/27 06:11:37;;;;;;;8.65;7.00;;;22.10;65.10;;;;;;4976900;28;20037;-79
2021/07/27 06:14:09;;;;;;;8.68;7.05;;;22.10;65.10;;;;;;4960379;28;20023;-79
2021/07/27 06:16:37;;;;;;;8.93;6.95;;;22.10;65.10;;;;;;4961192;28;20443;-81
2021/07/27 06:19:06;;;;;;;8.95;7.53;;;22.10;65.10;;;;;;4960333;28;20053;-82
2021/07/27 06:21:33;;;;;;;8.65;6.43;;;22.10;65.10;;;;;;4977700;28;20122;-85
2021/07/27 06:23:58;;;;;;;8.68;6.75;;;22.10;65.10;;;;;;4977080;28;20546;-85
2021/07/27 06:26:25;;;;;;;8.82;6.63;;;22.10;65.10;;;;;;4928657;28;20129;-85
2021/07/27 06:28:52;;;;;;;8.77;6.97;;;22.10;65.10;;;;;;4945102;28;20041;-84
2021/07/27 06:31:18;;;;;;;8.20;6.53;;;22.10;65.10;;;;;;4960582;28;20043;-84
2021/07/27 06:33:46;;;;;;;8.90;6.55;;;22.10;65.10;;;;;;4976831;28;20054;-85
2021/07/27 06:36:13;;;;;;;8.13;6.30;;;22.10;65.10;;;;;;4944158;28;20154;-84
2021/07/27 06:38:39;;;;;;;7.82;6.28;;;22.10;65.10;;;;;;4929114;28;20043;-85
2021/07/27 06:41:06;;;;;;;8.75;6.15;;;22.10;65.10;;;;;;4960848;28;20035;-85
2021/07/27 06:43:32;;;;;;;8.02;6.40;;;22.10;65.10;;;;;;4977894;28;20027;-84
2021/07/27 06:45:58;;;;;;;7.68;5.93;;;22.20;65.20;;;;;;4975733;28;20035;-83
2021/07/27 06:48:24;;;;;;;7.68;6.13;;;22.20;65.20;;;;;;4928458;28;20368;-84
2021/07/27 06:50:52;;;;;;;8.60;6.25;;;22.20;65.20;;;;;;4960257;28;20121;-80
2021/07/27 06:53:18;;;;;;;7.65;6.30;;;22.20;65.20;;;;;;4960154;28;20019;-81
2021/07/27 06:55:45;;;;;;;7.43;5.97;;;22.20;65.20;;;;;;4975534;28;20066;-81
2021/07/27 06:58:11;;;;;;;7.70;6.07;;;22.20;65.20;;;;;;4959604;28;20023;-80
2021/07/27 07:00:40;;;;;;;7.45;6.03;;;22.20;65.20;;;;;;4943568;28;20113;-81
2021/07/27 07:03:09;;;;;;;8.10;6.10;;;22.20;65.30;;;;;;4975860;28;20114;-82
2021/07/27 07:05:37;;;;;;;7.55;6.00;;;22.20;65.30;;;;;;4959761;28;20062;-84
2021/07/27 07:08:03;;;;;;;8.07;6.05;;;22.20;65.20;;;;;;4959824;28;20251;-82
2021/07/27 07:10:29;;;;;;;7.43;6.13;;;22.30;65.30;;;;;;4959452;28;20037;-80
2021/07/27 07:12:55;;;;;;;7.55;6.18;;;22.30;65.30;;;;;;4942898;28;20143;-82
2021/07/27 07:15:20;;;;;;;7.22;5.75;;;22.30;65.30;;;;;;4943998;28;20194;-79
2021/07/27 07:17:46;;;;;;;7.38;5.60;;;22.30;65.30;;;;;;4975233;28;20379;-80
2021/07/27 07:20:15;;;;;;;7.15;6.10;;;22.30;65.30;;;;;;4959053;28;20483;-80
2021/07/27 07:22:41;;;;;;;8.10;5.65;;;22.30;65.30;;;;;;4959062;28;20031;-81
2021/07/27 07:25:07;;;;;;;7.05;5.47;;;22.40;65.30;;;;;;4975490;28;20029;-81
2021/07/27 07:27:34;;;;;;;7.03;5.45;;;22.40;65.30;;;;;;4975285;28;20034;-80
2021/07/27 07:30:00;;;;;;;7.13;5.57;;;22.40;65.30;;;;;;4973469;28;20476;-81
2021/07/27 07:32:38;;;;;;;8.02;6.13;;;22.40;65.20;;;;;;4927167;28;20038;-81
2021/07/27 07:35:05;;;;;;;8.00;5.68;;;22.40;65.30;;;;;;4975426;28;20492;-87
2021/07/27 07:37:31;;;;;;;7.82;5.93;;;22.40;65.20;;;;;;4960098;28;20090;-84
2021/07/27 07:39:56;;;;;;;7.35;5.97;;;22.40;65.20;;;;;;4975480;28;20034;-84
2021/07/27 07:42:22;;;;;;;6.68;5.13;;;22.40;65.20;;;;;;4960367;28;20079;-86
2021/07/27 07:44:48;;;;;;;7.00;5.60;;;22.50;65.20;;;;;;4959537;28;20031;-86
2021/07/27 07:47:14;;;;;;;8.20;5.80;;;22.50;65.20;;;;;;4959313;28;20046;-84
2021/07/27 07:49:39;;;;;;;7.45;6.15;;;22.50;65.20;;;;;;4959337;28;20552;-86
2021/07/27 07:52:06;;;;;;;7.80;6.20;;;22.50;65.10;;;;;;4959249;28;20041;-84
2021/07/27 07:54:33;;;;;;;8.10;5.95;;;22.60;65.20;;;;;;4974792;28;20049;-85
2021/07/27 07:56:59;;;;;;;7.32;5.45;;;22.60;65.20;;;;;;4958774;28;20034;-84
2021/07/27 07:59:24;;;;;;;6.88;5.43;;;22.60;65.20;;;;;;4975942;28;20085;-84
2021/07/27 08:01:55;;;;;;;7.40;5.93;;;22.60;65.10;;;;;;4959118;28;20027;-85
2021/07/27 08:04:22;;;;;;;6.18;4.97;;;22.70;65.20;;;;;;4959408;28;20035;-85
2021/07/27 08:06:48;;;;;;;6.85;5.47;;;22.70;65.10;;;;;;4959172;28;20514;-83
2021/07/27 08:09:13;;;;;;;7.68;6.38;;;22.70;65.10;;;;;;4959282;28;20035;-83
2021/07/27 08:11:42;;;;;;;6.65;4.85;;;22.70;65.00;;;;;;4975390;28;20030;-84
2021/07/27 08:14:08;;;;;;;6.50;5.35;;;22.80;65.10;;;;;;4959315;28;20043;-88
2021/07/27 08:16:35;;;;;;;6.93;5.47;;;22.80;65.10;;;;;;4959041;28;20030;-87
2021/07/27 08:19:03;;;;;;;6.15;5.07;;;22.80;65.00;;;;;;4942978;28;20058;-88
2021/07/27 08:21:29;;;;;;;6.75;5.03;;;22.80;65.00;;;;;;4959398;28;20038;-88
2021/07/27 08:24:00;;;;;;;7.32;5.68;;;22.90;65.00;;;;;;4959103;28;20041;-86
2021/07/27 08:26:27;;;;;;;7.22;5.70;;;22.90;65.00;;;;;;4958578;28;20059;-86
2021/07/27 08:28:53;;;;;;;6.97;5.57;;;22.90;65.00;;;;;;4958820;28;20027;-87
2021/07/27 08:31:19;;;;;;;6.72;5.30;;;22.90;64.90;;;;;;4958938;28;20089;-87
2021/07/27 08:33:47;;;;;;;7.22;6.00;;;23.00;64.90;;;;;;4958937;28;20026;-87
2021/07/27 08:36:18;;;;;;;8.40;6.13;;;23.00;65.00;;;;;;4950785;29;20134;-88
2021/07/27 08:38:52;;;;;;;7.78;5.90;;;23.00;64.90;;;;;;4956097;29;20027;-88
2021/07/27 08:41:24;;;;;;;7.35;5.97;;;23.10;65.00;;;;;;4955359;29;20039;-88
2021/07/27 08:43:59;;;;;;;7.35;5.88;;;23.10;65.00;;;;;;4939576;29;20046;-87
2021/07/27 08:46:28;;;;;;;6.95;5.50;;;23.10;64.90;;;;;;4954611;29;20067;-86
2021/07/27 08:49:01;;;;;;;6.97;5.55;;;23.10;64.90;;;;;;4929861;29;20026;-87
2021/07/27 08:51:28;;;;;;;7.18;5.65;;;23.10;64.90;;;;;;4956336;29;20126;-85
2021/07/27 08:53:54;;;;;;;7.43;5.65;;;23.10;64.80;;;;;;4941713;29;20027;-87
2021/07/27 08:56:21;;;;;;;7.05;5.75;;;23.20;64.90;;;;;;4958195;29;20086;-87
2021/07/27 08:58:47;;;;;;;6.93;5.30;;;23.20;64.90;;;;;;4944264;29;20425;-87
2021/07/27 09:01:25;;;;;;;6.43;5.15;;;23.20;64.90;;;;;;4956238;29;20421;-87
2021/07/27 09:03:53;;;;;;;8.43;5.95;;;23.20;64.90;;;;;;4939740;29;20525;-86
2021/07/27 09:06:24;;;;;;;7.65;5.60;;;23.30;64.80;;;;;;4922948;29;20118;-88
2021/07/27 09:09:10;;;;;;;6.95;5.45;;;23.30;64.90;;;;;;4940779;29;20106;-87
2021/07/27 09:11:47;;;;;;;6.88;5.47;;;23.30;64.90;;;;;;4939588;29;20039;-87
2021/07/27 09:14:21;;;;;;;7.15;5.32;;;23.40;64.80;;;;;;4923738;29;20044;-85
2021/07/27 09:16:51;;;;;;;6.70;5.23;;;23.40;64.80;;;;;;4955610;29;20043;-87
2021/07/27 09:19:18;;;;;;;6.60;5.38;;;23.40;64.70;;;;;;4956638;29;20031;-87
2021/07/27 09:21:49;;;;;;;7.97;5.40;;;23.50;64.70;;;;;;4945203;29;20030;-88
2021/07/27 09:24:21;;;;;;;6.43;5.15;;;23.50;64.70;;;;;;4956797;29;20066;-86
2021/07/27 09:26:59;;;;;;;7.05;5.30;;;23.50;64.70;;;;;;4926823;29;20102;-85
2021/07/27 09:29:29;;;;;;;6.38;5.50;;;23.50;64.70;;;;;;4943014;29;20043;-86
2021/07/27 09:32:00;;;;;;;6.32;5.40;;;23.50;64.60;;;;;;4941604;29;20043;-86
2021/07/27 09:34:30;;;;;;;7.50;5.40;;;23.60;64.70;;;;;;4940424;29;20031;-88
2021/07/27 09:37:06;;;;;;;7.53;5.40;;;23.70;64.70;;;;;;4939707;29;20058;-88
2021/07/27 09:39:34;;;;;;;6.82;5.75;;;23.60;64.60;;;;;;4940149;29;20568;-87
2021/07/27 09:42:08;;;;;;;6.53;5.20;;;23.70;64.50;;;;;;4957523;29;20019;-89
2021/07/27 09:44:36;;;;;;;5.80;4.75;;;23.70;64.50;;;;;;4955331;29;20113;-87
2021/07/27 09:47:05;;;;;;;6.40;5.03;;;23.80;64.40;;;;;;4939533;29;20548;-87
2021/07/27 09:49:37;;;;;;;7.07;5.13;;;23.80;64.40;;;;;;4955079;29;20079;-88
2021/07/27 09:52:13;;;;;;;6.47;5.15;;;23.80;64.40;;;;;;4957304;29;20034;-88
2021/07/27 09:54:40;;;;;;;6.20;4.95;;;23.90;65.10;;;;;;4940477;29;20035;-88
2021/07/27 09:57:10;;;;;;;6.40;4.55;;;24.00;64.40;;;;;;4956481;29;20091;-86
2021/07/27 09:59:36;;;;;;;6.15;4.47;;;24.00;64.30;;;;;;4955998;29;20031;-87
2021/07/27 10:02:08;;;;;;;5.80;4.45;;;24.00;64.30;;;;;;4924818;29;20034;-88
2021/07/27 10:04:46;;;;;;;;;;;;;;;;;;;;;
2021/07/27 10:07:28;;;;;;;5.15;4.22;;;24.10;64.20;;;;;;4942331;29;20043;-89
2021/07/27 10:10:11;;;;;;;5.68;4.70;;;24.20;64.30;;;;;;4956443;29;20098;-91
2021/07/27 10:13:11;;;;;;;5.82;4.60;;;24.30;64.20;;;;;;4939718;29;20027;-87
2021/07/27 10:15:48;;;;;;;6.18;4.95;;;24.30;64.20;;;;;;4947560;29;20043;-90
2021/07/27 10:18:30;;;;;;;5.93;4.38;;;24.40;64.00;;;;;;4955415;29;20062;-90
2021/07/27 10:21:31;;;;;;;5.22;4.22;;;24.50;64.10;;;;;;4942079;29;20098;-87
2021/07/27 10:24:16;;;;;;;5.45;4.25;;;24.50;64.00;;;;;;4958580;29;20031;-85
2021/07/27 10:26:59;;;;;;;;;;;;;;;;;;;;;
2021/07/27 10:29:30;;;;;;;5.18;4.20;;;24.70;63.70;;;;;;4957788;29;20122;-88
2021/07/27 10:31:59;;;;;;;5.63;4.63;;;24.70;63.60;;;;;;4957837;29;20034;-84
2021/07/27 10:34:40;;;;;;;5.82;4.70;;;24.80;63.50;;;;;;4927288;29;20074;-87
2021/07/27 10:37:11;;;;;;;5.35;4.28;;;24.80;63.50;;;;;;4956801;28;20090;-83
2021/07/27 10:39:57;;;;;;;5.03;4.28;;;24.90;63.40;;;;;;4944469;28;20030;-85
2021/07/27 10:42:24;;;;;;;5.45;4.40;;;25.00;64.10;;;;;;4960983;28;20183;-86
2021/07/27 10:44:52;;;;;;;5.68;4.22;;;25.00;63.10;;;;;;4960707;28;20019;-84
2021/07/27 10:47:22;;;;;;;5.53;4.50;;;25.00;63.10;;;;;;4960404;28;20085;-83
2021/07/27 10:50:01;;;;;;;5.88;4.57;;;25.10;63.10;;;;;;4960926;28;20037;-82
2021/07/27 10:52:27;;;;;;;4.95;4.15;;;25.10;63.10;;;;;;4960339;28;20106;-82
2021/07/27 10:54:58;;;;;;;5.90;4.75;;;25.20;62.90;;;;;;4960189;28;20102;-83
2021/07/27 10:57:34;;;;;;;6.05;5.03;;;25.20;62.90;;;;;;4975915;28;20066;-84
2021/07/27 11:00:02;;;;;;;7.18;4.90;;;25.30;62.90;;;;;;4977986;28;20034;-84
2021/07/27 11:02:28;;;;;;;7.00;4.80;;;25.30;62.80;;;;;;4960750;28;20046;-84
2021/07/27 11:04:54;;;;;;;5.38;4.47;;;25.30;62.70;;;;;;4976842;28;20031;-85
2021/07/27 11:07:20;;;;;;;5.53;4.55;;;25.30;62.60;;;;;;4978575;28;20113;-85
2021/07/27 11:09:57;;;;;;;6.60;5.05;;;25.40;62.70;;;;;;4961395;28;20031;-85
2021/07/27 11:12:39;;;;;;;6.43;5.00;;;25.40;62.60;;;;;;4977544;28;20065;-83
2021/07/27 11:15:25;;;;;;;6.18;4.85;;;25.40;62.60;;;;;;4961769;28;20486;-84
2021/07/27 11:18:01;;;;;;;5.88;4.93;;;25.40;62.60;;;;;;4977355;28;20476;-85
2021/07/27 11:20:31;;;;;;;6.10;5.15;;;25.50;62.60;;;;;;4961112;28;20023;-84
2021/07/27 11:23:18;;;;;;;6.57;4.60;;;25.50;62.60;;;;;;4944666;28;20023;-84
2021/07/27 11:25:53;;;;;;;5.47;4.90;;;25.50;62.60;;;;;;4975872;28;20045;-85
2021/07/27 11:28:20;;;;;;;5.97;4.90;;;25.60;62.60;;;;;;4977239;28;20031;-85
2021/07/27 11:30:46;;;;;;;5.93;4.47;;;25.60;62.60;;;;;;4976952;28;20034;-87
2021/07/27 11:33:18;;;;;;;5.63;4.90;;;25.60;62.50;;;;;;4953966;28;20031;-85
2021/07/27 11:35:47;;;;;;;5.75;4.93;;;25.60;62.50;;;;;;4971429;28;20051;-84
2021/07/27 11:38:23;;;;;;;5.70;4.72;;;25.70;62.50;;;;;;4940893;29;20049;-84
2021/07/27 11:41:01;;;;;;;5.68;4.55;;;25.70;62.50;;;;;;4956931;29;20027;-89
2021/07/27 11:43:33;;;;;;;5.97;5.00;;;25.70;62.40;;;;;;4942805;29;20416;-90
2021/07/27 11:46:16;;;;;;;6.75;5.10;;;25.70;62.30;;;;;;4940637;29;20031;-85
2021/07/27 11:48:43;;;;;;;6.25;4.38;;;25.70;62.30;;;;;;4957086;29;20502;-85
2021/07/27 11:51:10;;;;;;;5.40;4.43;;;25.80;62.30;;;;;;4956869;29;20081;-85
2021/07/27 11:53:41;;;;;;;5.47;4.30;;;25.80;62.40;;;;;;4940394;29;20031;-84
2021/07/27 11:56:14;;;;;;;4.55;3.63;;;25.80;62.40;;;;;;4957010;29;20448;-84
2021/07/27 11:58:40;;;;;;;4.63;3.63;;;25.80;62.40;;;;;;4956528;29;20082;-84
2021/07/27 12:01:06;;;;;;;4.63;3.58;;;25.80;62.40;;;;;;4956641;29;20027;-86
2021/07/27 12:03:32;;;;;;;4.47;3.35;;;25.80;62.40;;;;;;4958026;29;20035;-86
2021/07/27 12:06:08;;;;;;;4.35;2.85;;;25.80;62.50;;;;;;4941373;29;20086;-85
2021/07/27 12:08:33;;;;;;;5.15;3.08;;;25.70;62.50;;;;;;4940546;29;20032;-85
2021/07/27 12:10:59;;;;;;;3.45;2.45;;;25.70;62.50;;;;;;4956824;29;20024;-85
2021/07/27 12:13:29;;;;;;;4.25;2.78;;;25.70;62.60;;;;;;4957777;29;20032;-86
2021/07/27 12:15:55;;;;;;;4.97;2.55;;;25.60;62.50;;;;;;4934798;29;20050;-84
2021/07/27 12:18:21;;;;;;;4.00;2.80;;;25.70;62.60;;;;;;4957536;29;20035;-85
2021/07/27 12:20:51;;;;;;;4.53;2.25;;;25.60;62.60;;;;;;4940738;29;20069;-88
2021/07/27 12:23:20;;;;;;;4.03;2.28;;;25.60;62.60;;;;;;4940330;29;20107;-86
2021/07/27 12:25:47;;;;;;;3.55;2.10;;;25.60;62.60;;;;;;4940183;29;20049;-87
2021/07/27 12:28:16;;;;;;;3.55;2.28;;;25.60;62.60;;;;;;4956572;29;20024;-87
2021/07/27 12:30:42;;;;;;;3.05;2.20;;;25.50;62.60;;;;;;4941091;29;20047;-87
2021/07/27 12:33:10;;;;;;;3.03;2.22;;;25.50;62.50;;;;;;4957317;29;20031;-86
2021/07/27 12:35:37;;;;;;;2.90;2.17;;;25.50;62.60;;;;;;4942885;28;20042;-86
2021/07/27 12:38:06;;;;;;;3.35;2.17;;;25.40;62.60;;;;;;4976628;28;20031;-86
2021/07/27 12:40:33;;;;;;;2.95;2.28;;;25.50;62.80;;;;;;4959298;28;20031;-86
2021/07/27 12:42:59;;;;;;;3.22;2.10;;;25.40;63.40;;;;;;4958136;28;20122;-86
2021/07/27 12:45:25;;;;;;;3.33;2.10;;;25.40;62.80;;;;;;4975156;28;20067;-85
2021/07/27 12:47:50;;;;;;;2.20;1.80;;;25.40;62.80;;;;;;4959059;28;20050;-86
2021/07/27 12:50:19;;;;;;;2.92;1.95;;;25.30;62.80;;;;;;4974874;28;20037;-86
2021/07/27 12:52:47;;;;;;;3.08;2.00;;;25.40;62.90;;;;;;4943334;28;20034;-87
2021/07/27 12:55:16;;;;;;;3.20;2.20;;;25.40;63.00;;;;;;4958517;28;20027;-86
2021/07/27 12:57:41;;;;;;;2.50;1.90;;;25.30;62.90;;;;;;4958932;28;20066;-86
2021/07/27 13:00:08;;;;;;;3.38;1.92;;;25.30;62.90;;;;;;4975440;28;20054;-86
2021/07/27 13:02:34;;;;;;;2.75;1.90;;;25.30;63.00;;;;;;4942507;28;20037;-87
2021/07/27 13:05:00;;;;;;;3.33;2.22;;;25.30;63.00;;;;;;4974219;28;20395;-86
2021/07/27 13:07:26;;;;;;;2.97;1.90;;;25.30;63.00;;;;;;4959038;28;20038;-87
2021/07/27 13:09:52;;;;;;;3.08;2.20;;;25.30;63.10;;;;;;4959453;28;20080;-86
2021/07/27 13:12:18;;;;;;;3.42;2.13;;;25.30;63.10;;;;;;4974636;28;20476;-86
2021/07/27 13:14:44;;;;;;;2.75;1.75;;;25.30;63.10;;;;;;4974491;28;20031;-87